Time;durP1;ratioP1;P1;durP2;ratioP2;P2;SDS_P1;SDS_P2;PMS_P1;PMS_P2;Temp;Humidity;BMP_temperature;BMP_pressure;BME280_temperature;BME280_humidity;BME280_pressure;Samples;Min_cycle;Max_cycle;Signal;HPM_P1;HPM_P2
2022/11/05 00:10:22;;;;;;;11.40;6.50;;;9.60;99.90;;;;;;6274206;22;20080;-87
2022/11/05 00:18:27;;;;;;;13.57;6.53;;;9.60;99.90;;;;;;6247103;22;20007;-86
2022/11/05 00:20:55;;;;;;;10.97;5.90;;;9.60;99.90;;;;;;6274118;22;20003;-87
2022/11/05 00:26:10;;;;;;;10.77;6.60;;;9.40;99.90;;;;;;6246442;22;20090;-86
2022/11/05 00:28:47;;;;;;;11.50;6.40;;;9.40;99.90;;;;;;6246465;22;20079;-87
2022/11/05 00:31:35;;;;;;;;;;;;;;;;;;;;;
2022/11/05 00:34:09;;;;;;;11.87;6.30;;;9.40;99.90;;;;;;6247009;22;20017;-87
2022/11/05 00:36:55;;;;;;;;;;;9.30;99.90;;;;;;6247567;22;20494;-88
2022/11/05 00:39:44;;;;;;;12.33;6.13;;;9.30;99.90;;;;;;6247769;22;19907;-88
2022/11/05 00:45:11;;;;;;;13.43;6.70;;;9.30;99.90;;;;;;6246566;22;20012;-87
2022/11/05 00:50:22;;;;;;;15.07;7.00;;;9.40;99.90;;;;;;6273829;22;19926;-87
2022/11/05 00:52:55;;;;;;;13.95;6.10;;;9.30;99.90;;;;;;6247218;22;20027;-88
2022/11/05 00:55:23;;;;;;;11.87;6.40;;;9.30;99.90;;;;;;6221503;22;20058;-87
2022/11/05 00:57:51;;;;;;;11.20;6.43;;;9.30;99.90;;;;;;6221982;22;20007;-87
2022/11/05 01:00:24;;;;;;;13.77;6.37;;;9.30;99.90;;;;;;6271261;22;20011;-88
2022/11/05 01:03:09;;;;;;;11.80;6.70;;;9.20;99.90;;;;;;6222677;22;20142;-88
2022/11/05 01:05:40;;;;;;;12.80;7.03;;;9.20;99.90;;;;;;6246790;22;20071;-88
2022/11/05 01:08:14;;;;;;;10.47;6.43;;;9.20;99.90;;;;;;6246757;22;20018;-88
2022/11/05 01:10:48;;;;;;;12.13;6.50;;;9.20;99.90;;;;;;6273717;22;20011;-87
2022/11/05 01:13:22;;;;;;;14.10;7.40;;;9.30;99.90;;;;;;6247231;22;20010;-87
2022/11/05 01:15:53;;;;;;;12.90;7.13;;;9.10;99.90;;;;;;6221819;22;20019;-87
2022/11/05 01:18:27;;;;;;;11.90;6.43;;;9.10;99.90;;;;;;6272095;22;20107;-87
2022/11/05 01:21:14;;;;;;;11.53;5.83;;;9.00;99.90;;;;;;6222680;22;20389;-87
2022/11/05 01:23:42;;;;;;;10.80;6.03;;;9.00;99.90;;;;;;6246891;22;20008;-87
2022/11/05 01:26:11;;;;;;;12.57;6.70;;;8.90;99.90;;;;;;6271936;22;20059;-88
2022/11/05 01:28:36;;;;;;;16.27;7.13;;;8.90;99.90;;;;;;6271908;22;20084;-88
2022/11/05 01:31:04;;;;;;;14.00;6.47;;;8.80;99.90;;;;;;6273724;22;20024;-87
2022/11/05 01:33:33;;;;;;;12.53;5.97;;;8.80;99.90;;;;;;6273371;22;20082;-87
2022/11/05 01:36:05;;;;;;;11.17;6.50;;;8.70;99.90;;;;;;6271573;22;20037;-87
2022/11/05 01:38:34;;;;;;;12.17;6.40;;;8.70;99.90;;;;;;6220935;22;20150;-88
2022/11/05 01:41:00;;;;;;;11.95;6.25;;;8.80;99.90;;;;;;6271722;22;20007;-87
2022/11/05 01:43:50;;;;;;;12.57;6.43;;;8.90;99.90;;;;;;6221636;22;20323;-87
2022/11/05 01:46:31;;;;;;;14.17;6.90;;;8.90;99.90;;;;;;6220756;22;20090;-87
2022/11/05 01:49:25;;;;;;;12.70;6.63;;;8.90;99.90;;;;;;6246190;22;20129;-88
2022/11/05 01:51:51;;;;;;;13.63;6.57;;;8.90;99.90;;;;;;6271897;22;20067;-87
2022/11/05 01:54:22;;;;;;;11.07;6.17;;;8.80;99.90;;;;;;6273259;22;20030;-87
2022/11/05 01:57:04;;;;;;;;;;;;;;;;;;;;;
2022/11/05 01:59:43;;;;;;;11.23;6.70;;;8.80;99.90;;;;;;6273047;22;20046;-88
2022/11/05 02:02:24;;;;;;;14.60;6.27;;;8.70;99.90;;;;;;6248052;22;20011;-87
2022/11/05 02:05:36;;;;;;;;;;;;;;;;;;;;;
2022/11/05 02:09:02;;;;;;;11.47;6.40;;;8.60;99.90;;;;;;6275699;22;20071;-87
2022/11/05 02:11:36;;;;;;;11.80;5.87;;;8.60;99.90;;;;;;6249882;22;20007;-88
2022/11/05 02:14:02;;;;;;;12.17;6.20;;;8.50;99.90;;;;;;6273894;22;20030;-87
2022/11/05 02:16:36;;;;;;;13.98;7.07;;;8.50;99.90;;;;;;6248398;22;20031;-87
2022/11/05 02:19:23;;;;;;;11.93;6.27;;;8.60;99.90;;;;;;6222986;22;20007;-87
2022/11/05 02:22:06;;;;;;;12.10;6.87;;;8.60;99.90;;;;;;6248590;22;20011;-88
2022/11/05 02:24:38;;;;;;;10.43;6.57;;;8.60;99.90;;;;;;6248375;22;20434;-87
2022/11/05 02:27:50;;;;;;;11.47;6.37;;;8.50;99.90;;;;;;6247491;22;20018;-87
2022/11/05 02:30:18;;;;;;;14.20;6.90;;;8.50;99.90;;;;;;6248267;22;20000;-87
2022/11/05 02:32:53;;;;;;;13.27;6.93;;;8.40;99.90;;;;;;6274899;22;19999;-87
2022/11/05 02:35:55;;;;;;;13.27;6.90;;;8.40;99.90;;;;;;6247744;22;20007;-87
2022/11/05 02:38:51;;;;;;;11.50;6.67;;;8.40;99.90;;;;;;6222480;22;20007;-88
2022/11/05 02:41:40;;;;;;;12.23;7.13;;;8.40;99.90;;;;;;6248773;22;20004;-87
2022/11/05 02:44:35;;;;;;;12.23;7.07;;;8.30;99.90;;;;;;6247801;22;20034;-88
2022/11/05 02:47:38;;;;;;;12.60;6.93;;;8.30;99.90;;;;;;6247622;22;20067;-88
2022/11/05 02:50:19;;;;;;;11.17;6.57;;;8.30;99.90;;;;;;6222767;22;20003;-87
2022/11/05 02:53:08;;;;;;;12.70;7.20;;;8.30;99.90;;;;;;6247934;22;20019;-88
2022/11/05 02:55:58;;;;;;;13.20;7.03;;;8.30;99.90;;;;;;6248043;22;20004;-86
2022/11/05 02:58:29;;;;;;;;;;;8.30;99.90;;;;;;6222858;22;20042;-87
2022/11/05 03:00:59;;;;;;;11.47;6.53;;;8.40;99.90;;;;;;6222204;22;20337;-88
2022/11/05 03:03:37;;;;;;;9.60;6.37;;;8.40;99.90;;;;;;6222967;22;20012;-87
2022/11/05 03:06:35;;;;;;;12.80;7.30;;;8.40;99.90;;;;;;6245167;22;20023;-83
2022/11/05 03:09:26;;;;;;;12.10;6.77;;;8.50;99.90;;;;;;6246106;22;20008;-83
2022/11/05 03:12:01;;;;;;;13.10;7.50;;;8.60;99.90;;;;;;6274307;22;20557;-85
2022/11/05 03:14:43;;;;;;;14.70;6.70;;;8.50;99.90;;;;;;6274288;22;20004;-85
2022/11/05 03:17:20;;;;;;;13.10;6.57;;;8.40;99.90;;;;;;6247074;22;20027;-83
2022/11/05 03:20:11;;;;;;;11.40;7.33;;;8.40;99.90;;;;;;6273822;22;20012;-85
2022/11/05 03:22:46;;;;;;;12.53;6.97;;;8.40;99.90;;;;;;6274473;22;20008;-86
2022/11/05 03:25:16;;;;;;;12.23;6.97;;;8.40;99.90;;;;;;6247275;22;20486;-85
2022/11/05 03:30:13;;;;;;;17.50;7.90;;;8.30;99.90;;;;;;6096222;23;20249;-86
2022/11/05 03:32:45;;;;;;;11.03;7.67;;;8.30;99.90;;;;;;6124136;23;20010;-86
2022/11/05 03:35:19;;;;;;;11.57;7.20;;;8.30;99.90;;;;;;6098220;23;20010;-83
2022/11/05 03:37:48;;;;;;;12.13;7.30;;;8.30;99.90;;;;;;6149543;23;20005;-86
2022/11/05 03:40:17;;;;;;;16.48;7.85;;;8.30;99.90;;;;;;6153112;23;20520;-86
2022/11/05 03:42:46;;;;;;;16.05;7.45;;;8.40;99.90;;;;;;6153861;23;20032;-86
2022/11/05 03:45:29;;;;;;;11.32;7.18;;;8.30;99.90;;;;;;6151816;23;20385;-86
2022/11/05 03:47:58;;;;;;;11.83;7.60;;;8.30;99.90;;;;;;6153383;23;20009;-85
2022/11/05 03:50:49;;;;;;;10.87;6.83;;;8.30;99.90;;;;;;6153002;23;20336;-84
2022/11/05 03:53:21;;;;;;;13.27;7.97;;;8.40;99.90;;;;;;6152321;23;20016;-83
2022/11/05 03:55:54;;;;;;;11.63;6.83;;;8.40;99.90;;;;;;6153055;23;20013;-83
2022/11/05 03:58:22;;;;;;;11.87;7.27;;;8.30;99.90;;;;;;6153423;23;20016;-86
2022/11/05 04:00:49;;;;;;;13.10;7.70;;;8.40;99.90;;;;;;6152949;23;20037;-83
2022/11/05 04:03:15;;;;;;;12.83;7.47;;;8.30;99.90;;;;;;6127641;23;20005;-86
2022/11/05 04:05:41;;;;;;;11.33;6.70;;;8.30;99.90;;;;;;6153331;23;20336;-85
2022/11/05 04:13:37;;;;;;;12.87;7.50;;;8.30;99.90;;;;;;6153298;23;20014;-83
2022/11/05 04:18:47;;;;;;;13.53;7.30;;;8.30;99.90;;;;;;6153426;23;20040;-85
2022/11/05 04:24:07;;;;;;;16.77;7.33;;;8.20;99.90;;;;;;6153190;23;20052;-85
2022/11/05 04:26:33;;;;;;;14.17;8.07;;;8.20;99.90;;;;;;6152815;23;20084;-85
2022/11/05 04:31:43;;;;;;;13.23;7.40;;;8.20;99.90;;;;;;6182777;23;20500;-85
2022/11/05 04:34:09;;;;;;;12.20;7.57;;;8.20;99.90;;;;;;6182855;23;20036;-85
2022/11/05 04:36:35;;;;;;;14.53;7.57;;;8.20;99.90;;;;;;6180882;23;20008;-85
2022/11/05 04:39:01;;;;;;;12.67;7.83;;;8.20;99.90;;;;;;6182894;23;20008;-83
2022/11/05 04:41:26;;;;;;;14.10;7.90;;;8.20;99.90;;;;;;6182654;23;20059;-84
2022/11/05 04:43:52;;;;;;;15.57;8.40;;;8.20;99.90;;;;;;6182734;23;20036;-83
2022/11/05 04:46:18;;;;;;;12.73;8.37;;;8.10;99.90;;;;;;6182633;23;20012;-83
2022/11/05 04:48:44;;;;;;;15.63;7.67;;;8.20;99.90;;;;;;6182451;23;20005;-85
2022/11/05 04:51:09;;;;;;;13.57;8.40;;;8.20;99.90;;;;;;6182532;23;20036;-85
2022/11/05 04:53:35;;;;;;;13.83;8.13;;;8.10;99.90;;;;;;6183077;23;20016;-86
2022/11/05 04:56:24;;;;;;;14.37;8.23;;;8.10;99.90;;;;;;6156480;23;20008;-86
2022/11/05 04:58:51;;;;;;;14.60;8.17;;;8.10;99.90;;;;;;6152610;23;20025;-83
2022/11/05 05:01:19;;;;;;;12.40;8.10;;;8.10;99.90;;;;;;6152791;23;20009;-86
2022/11/05 05:03:49;;;;;;;13.87;8.53;;;8.10;99.90;;;;;;6152860;23;20016;-86
2022/11/05 05:06:16;;;;;;;12.03;8.03;;;8.10;99.90;;;;;;6152533;23;20237;-84
2022/11/05 05:08:42;;;;;;;12.50;7.77;;;8.10;99.90;;;;;;6152627;23;20002;-86
2022/11/05 05:11:11;;;;;;;17.40;8.80;;;8.10;99.90;;;;;;6152667;23;20009;-83
2022/11/05 05:13:37;;;;;;;12.35;8.00;;;8.00;99.90;;;;;;6126768;23;20348;-84
2022/11/05 05:16:07;;;;;;;13.07;8.50;;;8.10;99.90;;;;;;6152491;23;20456;-86
2022/11/05 05:18:34;;;;;;;12.57;8.33;;;8.00;99.90;;;;;;6126491;23;20013;-83
2022/11/05 05:23:47;;;;;;;14.63;8.50;;;8.00;99.90;;;;;;6152645;23;20069;-86
2022/11/05 05:26:13;;;;;;;13.50;8.80;;;8.00;99.90;;;;;;6143689;23;20005;-82
2022/11/05 05:28:39;;;;;;;14.93;8.77;;;8.00;99.90;;;;;;6130379;23;20006;-85
2022/11/05 05:31:05;;;;;;;16.83;8.63;;;8.00;99.90;;;;;;6174695;23;20147;-83
2022/11/05 05:33:31;;;;;;;13.67;8.80;;;8.10;99.90;;;;;;6152009;23;20006;-86
2022/11/05 05:35:57;;;;;;;12.57;8.57;;;8.00;99.90;;;;;;6153046;23;20340;-87
2022/11/05 05:45:50;;;;;;;;;;;8.00;99.90;;;;;;6091763;23;20006;-88
2022/11/05 05:48:15;;;;;;;14.57;8.30;;;7.90;99.90;;;;;;6140354;23;19905;-86
2022/11/05 05:50:41;;;;;;;12.53;8.60;;;7.90;99.90;;;;;;6152835;23;20100;-86
2022/11/05 05:53:08;;;;;;;14.60;8.57;;;7.80;99.90;;;;;;6176929;23;20335;-86
2022/11/05 05:55:34;;;;;;;14.10;8.50;;;7.90;99.90;;;;;;6153962;23;20057;-89
2022/11/05 05:58:19;;;;;;;;;;;;;;;;;;;;;
2022/11/05 06:01:06;;;;;;;14.50;8.37;;;7.90;99.90;;;;;;6213392;23;20080;-88
2022/11/05 06:03:32;;;;;;;12.57;7.53;;;7.80;99.90;;;;;;6211407;23;20025;-84
2022/11/05 06:06:07;;;;;;;15.17;8.83;;;7.80;99.90;;;;;;6210478;23;20351;-84
2022/11/05 06:08:33;;;;;;;14.63;8.63;;;7.70;99.90;;;;;;6211135;23;20036;-84
2022/11/05 06:11:00;;;;;;;13.90;9.27;;;7.50;99.90;;;;;;6203160;23;20331;-84
2022/11/05 06:13:26;;;;;;;17.17;9.50;;;7.40;99.90;;;;;;6212056;23;20431;-84
2022/11/05 06:15:52;;;;;;;13.97;9.07;;;7.30;99.90;;;;;;6236159;23;20009;-84
2022/11/05 06:18:18;;;;;;;14.57;9.47;;;7.30;99.90;;;;;;6212777;23;20015;-84
2022/11/05 06:20:44;;;;;;;16.67;10.10;;;7.30;99.90;;;;;;6212728;23;20438;-84
2022/11/05 06:23:09;;;;;;;13.53;9.23;;;7.30;99.90;;;;;;6212481;23;20001;-84
2022/11/05 06:25:35;;;;;;;16.03;10.00;;;7.30;99.90;;;;;;6211724;23;20043;-84
2022/11/05 06:28:01;;;;;;;15.57;9.73;;;7.20;99.90;;;;;;6212938;23;20035;-83
2022/11/05 06:30:27;;;;;;;14.83;9.77;;;7.20;99.90;;;;;;6211232;23;20023;-85
2022/11/05 06:32:53;;;;;;;17.80;9.70;;;7.30;99.90;;;;;;6212916;23;20455;-84
2022/11/05 06:35:18;;;;;;;16.33;10.03;;;7.40;99.90;;;;;;6236450;23;20427;-84
2022/11/05 06:37:44;;;;;;;15.00;9.87;;;7.50;99.90;;;;;;6212646;23;20435;-84
2022/11/05 06:40:10;;;;;;;15.87;10.20;;;7.60;99.90;;;;;;6234391;23;20106;-84
2022/11/05 06:42:36;;;;;;;16.70;10.07;;;7.60;99.90;;;;;;6212741;23;20007;-85
2022/11/05 06:45:02;;;;;;;17.63;10.30;;;7.60;99.90;;;;;;6211831;23;20005;-84
2022/11/05 06:47:27;;;;;;;18.20;10.50;;;7.70;99.90;;;;;;6212676;23;20008;-85
2022/11/05 06:49:55;;;;;;;17.60;11.03;;;7.80;99.90;;;;;;6212035;23;20460;-85
2022/11/05 06:52:20;;;;;;;18.53;10.50;;;7.80;99.90;;;;;;6208701;23;20012;-85
2022/11/05 06:54:46;;;;;;;19.67;11.10;;;7.90;99.90;;;;;;6209232;23;20339;-84
2022/11/05 06:57:12;;;;;;;17.77;11.00;;;8.00;99.90;;;;;;6209936;23;20446;-85
2022/11/05 06:59:39;;;;;;;17.97;11.10;;;8.10;99.90;;;;;;6211229;23;20076;-85
2022/11/05 07:02:06;;;;;;;18.17;11.23;;;8.00;99.90;;;;;;6211213;23;20000;-85
2022/11/05 07:04:32;;;;;;;18.03;10.80;;;8.00;99.90;;;;;;6210360;23;20075;-84
2022/11/05 07:07:01;;;;;;;19.37;11.43;;;7.90;99.90;;;;;;6182222;23;20655;-85
2022/11/05 07:09:27;;;;;;;20.25;11.32;;;7.90;99.90;;;;;;6213251;23;20009;-90
2022/11/05 07:11:54;;;;;;;20.27;11.70;;;7.90;99.90;;;;;;6205135;23;20009;-89
2022/11/05 07:14:25;;;;;;;19.17;11.30;;;7.90;99.90;;;;;;6187303;23;20013;-88
2022/11/05 07:17:09;;;;;;;18.63;11.50;;;7.90;99.90;;;;;;6188550;23;20088;-88
2022/11/05 07:20:00;;;;;;;21.33;12.07;;;7.90;99.90;;;;;;6189599;23;20023;-94
2022/11/05 07:22:26;;;;;;;17.53;11.17;;;7.90;99.90;;;;;;6212903;23;20000;-85
2022/11/05 07:24:54;;;;;;;20.03;10.40;;;7.90;99.90;;;;;;6211036;23;20051;-85
2022/11/05 07:27:20;;;;;;;19.67;12.23;;;7.90;99.90;;;;;;6185645;23;20088;-86
2022/11/05 07:29:45;;;;;;;18.03;12.07;;;7.90;99.90;;;;;;6211939;23;20112;-87
2022/11/05 07:32:12;;;;;;;18.63;11.67;;;7.90;99.90;;;;;;6186078;23;20000;-88
2022/11/05 07:34:59;;;;;;;18.27;12.27;;;8.00;99.90;;;;;;6214269;23;19997;-94
2022/11/05 07:38:03;;;;;;;21.63;12.53;;;8.00;99.90;;;;;;6187108;23;20055;-93
2022/11/05 07:40:30;;;;;;;22.37;13.23;;;7.90;99.90;;;;;;6183229;23;20138;-84
2022/11/05 07:43:03;;;;;;;22.47;13.47;;;8.00;99.90;;;;;;6185505;23;20521;-93
2022/11/05 07:45:31;;;;;;;21.10;12.77;;;8.00;99.90;;;;;;6212222;23;20015;-87
2022/11/05 07:48:02;;;;;;;20.43;12.17;;;8.10;99.90;;;;;;6211731;23;20092;-90
2022/11/05 07:50:34;;;;;;;17.80;11.30;;;8.20;99.90;;;;;;6212082;23;20018;-87
2022/11/05 07:53:08;;;;;;;21.60;13.13;;;8.10;99.90;;;;;;6211976;23;20005;-85
2022/11/05 07:55:34;;;;;;;20.00;12.17;;;8.40;99.90;;;;;;6210966;23;20012;-84
2022/11/05 07:58:00;;;;;;;22.03;12.80;;;8.40;99.90;;;;;;6211099;23;20454;-87
2022/11/05 08:00:27;;;;;;;18.80;10.90;;;8.40;99.90;;;;;;6211775;23;20024;-84
2022/11/05 08:03:01;;;;;;;20.00;11.17;;;8.60;99.90;;;;;;6211875;23;20095;-85
2022/11/05 08:05:27;;;;;;;19.70;11.90;;;8.60;99.90;;;;;;6212049;23;20013;-85
2022/11/05 08:07:54;;;;;;;22.10;12.13;;;8.70;99.90;;;;;;6212282;23;20396;-84
2022/11/05 08:10:24;;;;;;;19.37;10.93;;;8.70;99.90;;;;;;6183183;23;20013;-82
2022/11/05 08:12:55;;;;;;;17.30;10.98;;;8.70;99.90;;;;;;6214098;23;20055;-84
2022/11/05 08:15:21;;;;;;;17.93;11.67;;;8.80;99.90;;;;;;6184649;23;20013;-84
2022/11/05 08:17:47;;;;;;;18.37;11.80;;;8.80;99.90;;;;;;6185166;23;20115;-84
2022/11/05 08:20:14;;;;;;;21.07;12.47;;;8.80;99.90;;;;;;6159286;23;20012;-83
2022/11/05 08:22:46;;;;;;;20.07;11.73;;;8.90;99.90;;;;;;6185622;23;20382;-87
2022/11/05 08:25:15;;;;;;;23.80;11.70;;;9.00;99.90;;;;;;6211284;23;20046;-83
2022/11/05 08:27:41;;;;;;;17.00;10.43;;;9.00;99.90;;;;;;6211527;23;20005;-83
2022/11/05 08:30:08;;;;;;;19.07;11.10;;;9.00;99.90;;;;;;6211141;23;20009;-81
2022/11/05 08:32:34;;;;;;;18.00;10.70;;;9.10;99.90;;;;;;6210388;23;20055;-84
2022/11/05 08:35:00;;;;;;;17.13;10.30;;;9.10;99.90;;;;;;6209039;23;20021;-82
2022/11/05 08:37:26;;;;;;;18.87;9.87;;;9.20;99.90;;;;;;6210088;23;20159;-83
2022/11/05 08:39:51;;;;;;;21.17;10.23;;;9.10;99.90;;;;;;6182546;23;20019;-83
2022/11/05 08:42:17;;;;;;;16.67;10.27;;;9.20;99.90;;;;;;6211072;23;20005;-83
2022/11/05 08:44:43;;;;;;;15.10;8.93;;;9.30;99.90;;;;;;6210392;23;20083;-83
2022/11/05 08:47:09;;;;;;;19.70;10.83;;;9.20;99.90;;;;;;6210980;23;20411;-87
2022/11/05 08:49:34;;;;;;;20.50;11.83;;;9.20;99.90;;;;;;6160649;23;20028;-83
2022/11/05 08:52:00;;;;;;;18.90;10.57;;;9.30;99.90;;;;;;6211289;23;20400;-85
2022/11/05 08:54:26;;;;;;;15.10;9.27;;;9.30;99.90;;;;;;6186486;23;20596;-88
2022/11/05 08:56:52;;;;;;;19.33;11.47;;;9.30;99.90;;;;;;6209701;23;20032;-82
2022/11/05 08:59:18;;;;;;;16.40;9.67;;;9.30;99.90;;;;;;6209317;23;20339;-82
2022/11/05 09:01:43;;;;;;;18.90;9.77;;;9.40;99.90;;;;;;6210421;23;20013;-82
2022/11/05 09:04:09;;;;;;;14.70;8.37;;;9.40;99.90;;;;;;6211843;23;20043;-82
2022/11/05 09:06:35;;;;;;;14.50;8.40;;;9.40;99.90;;;;;;6210512;22;20004;-86
2022/11/05 09:09:00;;;;;;;16.37;9.00;;;9.50;99.90;;;;;;6210107;23;20013;-86
2022/11/05 09:11:26;;;;;;;16.17;7.90;;;9.50;99.90;;;;;;6213358;23;20020;-86
2022/11/05 09:13:52;;;;;;;16.40;7.80;;;9.50;99.90;;;;;;6213555;23;20015;-85
2022/11/05 09:16:23;;;;;;;16.33;8.50;;;9.50;99.90;;;;;;6186604;23;20017;-86
2022/11/05 09:18:49;;;;;;;15.10;8.10;;;9.60;99.90;;;;;;6158036;23;20028;-86
2022/11/05 09:21:16;;;;;;;16.63;8.20;;;9.60;99.90;;;;;;6184437;23;20013;-85
2022/11/05 09:23:43;;;;;;;18.53;8.17;;;9.60;99.90;;;;;;6184809;23;20098;-84
2022/11/05 09:26:10;;;;;;;15.13;7.63;;;9.70;99.90;;;;;;6158603;23;20009;-85
2022/11/05 09:28:35;;;;;;;16.13;8.63;;;9.70;99.90;;;;;;6184158;23;20071;-85
2022/11/05 09:31:08;;;;;;;14.60;7.60;;;9.70;99.90;;;;;;6184521;23;20390;-85
2022/11/05 09:33:37;;;;;;;14.83;7.80;;;9.70;99.90;;;;;;6184349;23;20015;-86
2022/11/05 09:36:03;;;;;;;15.07;7.80;;;9.70;99.90;;;;;;6184471;23;20021;-86
2022/11/05 09:38:31;;;;;;;15.07;7.23;;;9.80;99.90;;;;;;6157918;23;20009;-85
2022/11/05 09:41:16;;;;;;;14.03;7.47;;;9.80;99.90;;;;;;6183628;23;20013;-86
2022/11/05 09:43:47;;;;;;;16.80;7.63;;;9.80;99.90;;;;;;6184801;23;20099;-86
2022/11/05 09:46:23;;;;;;;13.80;7.70;;;9.90;99.90;;;;;;6182489;23;20383;-85
2022/11/05 09:48:55;;;;;;;14.57;6.93;;;9.90;99.90;;;;;;6184130;23;20076;-86
2022/11/05 09:51:21;;;;;;;14.47;7.07;;;9.90;99.90;;;;;;6184341;23;20067;-85
2022/11/05 09:53:48;;;;;;;15.67;7.67;;;10.00;99.90;;;;;;6184282;23;20084;-86
2022/11/05 09:56:24;;;;;;;15.43;7.53;;;10.00;99.90;;;;;;6183826;23;20392;-85
2022/11/05 09:58:55;;;;;;;12.33;7.43;;;10.00;99.90;;;;;;6157569;23;20013;-85
2022/11/05 10:01:24;;;;;;;12.90;7.40;;;10.10;99.90;;;;;;6157543;23;20103;-85
2022/11/05 10:03:56;;;;;;;13.20;7.20;;;10.10;99.90;;;;;;6184112;23;20028;-86
2022/11/05 10:06:24;;;;;;;11.70;6.70;;;10.20;99.90;;;;;;6184106;23;20025;-86
2022/11/05 10:09:06;;;;;;;14.98;6.60;;;10.30;99.90;;;;;;6180907;23;20005;-86
2022/11/05 10:11:40;;;;;;;12.90;6.17;;;10.30;99.90;;;;;;6184062;23;20408;-85
2022/11/05 10:14:20;;;;;;;14.33;6.97;;;10.30;99.90;;;;;;6184200;23;20005;-85
2022/11/05 10:16:57;;;;;;;11.43;5.80;;;10.40;99.90;;;;;;6182102;23;20092;-85
2022/11/05 10:19:29;;;;;;;12.83;6.40;;;10.40;99.90;;;;;;6183787;23;20079;-85
2022/11/05 10:22:10;;;;;;;13.13;6.57;;;10.40;99.90;;;;;;6183944;23;20009;-85
2022/11/05 10:24:36;;;;;;;11.97;6.10;;;10.50;99.90;;;;;;6182387;23;20009;-85
2022/11/05 10:27:04;;;;;;;11.97;6.43;;;10.50;99.90;;;;;;6183690;23;20039;-85
2022/11/05 10:29:32;;;;;;;11.10;5.87;;;10.50;99.90;;;;;;6182515;23;20005;-86
2022/11/05 10:32:01;;;;;;;14.77;6.93;;;10.60;99.90;;;;;;6183079;23;20384;-85
2022/11/05 10:34:37;;;;;;;14.50;7.53;;;10.60;99.90;;;;;;6157512;23;20444;-85
2022/11/05 10:37:03;;;;;;;13.27;6.30;;;10.60;99.90;;;;;;6184356;23;20063;-85
2022/11/05 10:39:31;;;;;;;16.67;6.40;;;10.70;99.90;;;;;;6183851;23;20001;-86
2022/11/05 10:42:00;;;;;;;9.67;4.90;;;10.70;99.90;;;;;;6184547;23;20128;-86
2022/11/05 10:44:29;;;;;;;14.52;6.45;;;10.80;99.90;;;;;;6184361;23;20216;-85
2022/11/05 10:47:08;;;;;;;12.98;6.28;;;10.80;99.90;;;;;;6184338;23;20001;-86
2022/11/05 10:49:57;;;;;;;13.93;6.50;;;10.80;99.90;;;;;;6183854;23;20005;-85
2022/11/05 10:52:40;;;;;;;9.85;5.95;;;10.80;99.90;;;;;;6182849;23;20009;-86
2022/11/05 10:55:28;;;;;;;11.77;5.23;;;10.90;99.90;;;;;;6181913;23;20452;-85
2022/11/05 10:58:05;;;;;;;19.67;5.40;;;10.90;99.90;;;;;;6182281;23;20055;-85
2022/11/05 11:00:31;;;;;;;10.53;6.10;;;10.90;99.90;;;;;;6183413;23;20432;-85
2022/11/05 11:03:02;;;;;;;12.73;5.60;;;10.90;99.90;;;;;;6182468;23;20081;-85
2022/11/05 11:05:37;;;;;;;11.63;5.10;;;11.00;99.90;;;;;;6207625;23;20001;-85
2022/11/05 11:08:23;;;;;;;14.93;6.83;;;11.00;99.90;;;;;;6181927;23;20463;-85
2022/11/05 11:10:51;;;;;;;12.00;5.87;;;11.00;99.90;;;;;;6156980;23;20013;-86
2022/11/05 11:13:23;;;;;;;12.97;5.93;;;11.00;99.90;;;;;;6157341;23;20607;-84
2022/11/05 11:15:49;;;;;;;13.80;5.43;;;11.10;99.90;;;;;;6206921;23;20076;-83
2022/11/05 11:18:36;;;;;;;13.53;6.90;;;11.10;99.90;;;;;;6181595;23;20388;-84
2022/11/05 11:21:12;;;;;;;10.47;5.13;;;11.10;99.90;;;;;;6157173;23;20013;-84
2022/11/05 11:23:40;;;;;;;11.47;5.03;;;11.20;99.90;;;;;;6157490;23;20012;-84
2022/11/05 11:26:07;;;;;;;12.63;5.70;;;11.20;99.90;;;;;;6183093;23;20576;-84
2022/11/05 11:28:44;;;;;;;10.43;4.90;;;11.30;99.90;;;;;;6181597;23;20037;-84
2022/11/05 11:31:16;;;;;;;9.07;5.33;;;11.30;99.90;;;;;;6183441;23;20420;-84
2022/11/05 11:33:45;;;;;;;12.63;6.20;;;11.40;99.90;;;;;;6183353;23;20645;-84
2022/11/05 11:36:11;;;;;;;11.73;4.60;;;11.40;99.90;;;;;;6181820;23;20356;-84
2022/11/05 11:38:38;;;;;;;16.23;5.83;;;11.40;99.90;;;;;;6183276;23;20009;-84
2022/11/05 11:41:23;;;;;;;10.30;5.10;;;11.40;99.90;;;;;;6183429;23;20009;-84
2022/11/05 11:43:58;;;;;;;10.40;4.60;;;11.50;99.90;;;;;;6181741;23;20095;-84
2022/11/05 11:46:24;;;;;;;9.47;4.73;;;11.50;99.90;;;;;;6182760;23;20007;-84
2022/11/05 11:48:50;;;;;;;11.23;4.70;;;11.40;99.90;;;;;;6206492;23;20090;-85
2022/11/05 11:51:35;;;;;;;11.90;4.67;;;11.50;99.90;;;;;;6182978;23;20009;-84
2022/11/05 11:54:03;;;;;;;10.70;4.20;;;11.60;99.90;;;;;;6183123;23;20009;-84
2022/11/05 11:56:40;;;;;;;11.00;4.70;;;11.50;99.90;;;;;;6156127;23;20361;-84
2022/11/05 11:59:18;;;;;;;8.57;3.80;;;11.50;99.90;;;;;;6181520;23;20013;-84
2022/11/05 12:02:02;;;;;;;8.83;3.87;;;11.60;99.90;;;;;;6182939;23;20399;-84
2022/11/05 12:04:38;;;;;;;9.20;4.50;;;11.60;99.90;;;;;;6182974;23;20001;-84
2022/11/05 12:07:20;;;;;;;9.07;4.10;;;11.60;99.90;;;;;;6180798;23;20009;-84
2022/11/05 12:10:23;;;;;;;10.27;4.30;;;11.70;99.90;;;;;;6181297;23;20005;-84
2022/11/05 12:13:00;;;;;;;8.10;3.20;;;11.70;99.90;;;;;;6183128;23;20044;-84
2022/11/05 12:15:48;;;;;;;9.00;3.73;;;11.70;99.90;;;;;;6182837;23;20092;-84
2022/11/05 12:18:29;;;;;;;8.47;4.00;;;11.70;99.90;;;;;;6181257;23;20089;-84
2022/11/05 12:21:09;;;;;;;9.07;4.93;;;11.70;99.90;;;;;;6183325;23;20020;-84
2022/11/05 12:23:42;;;;;;;14.00;5.37;;;11.80;99.90;;;;;;6182754;23;20446;-84
2022/11/05 12:26:08;;;;;;;10.43;4.80;;;11.70;99.90;;;;;;6181116;23;20013;-85
2022/11/05 12:28:40;;;;;;;10.30;4.43;;;11.70;99.90;;;;;;6181307;23;20005;-84
2022/11/05 12:31:29;;;;;;;9.60;4.50;;;11.70;99.90;;;;;;6181282;23;20383;-84
2022/11/05 12:34:16;;;;;;;8.75;4.45;;;11.70;99.90;;;;;;6180711;23;20005;-83
2022/11/05 12:37:07;;;;;;;9.97;4.93;;;11.80;99.90;;;;;;6180466;23;20617;-84
2022/11/05 12:39:45;;;;;;;12.83;5.53;;;11.80;99.90;;;;;;6155894;23;20027;-84
2022/11/05 12:42:32;;;;;;;12.03;5.40;;;11.80;99.90;;;;;;6182658;23;20013;-84
2022/11/05 12:45:21;;;;;;;12.93;5.17;;;11.90;99.90;;;;;;6181954;23;20008;-84
2022/11/05 12:48:05;;;;;;;11.20;5.10;;;11.80;99.90;;;;;;6182660;23;20036;-84
2022/11/05 12:50:53;;;;;;;14.63;5.33;;;11.80;99.90;;;;;;6182805;23;20380;-84
2022/11/05 12:53:29;;;;;;;14.50;5.13;;;11.90;99.90;;;;;;6181561;23;20020;-84
2022/11/05 12:56:00;;;;;;;9.67;3.83;;;11.90;99.90;;;;;;6182359;23;20005;-84
2022/11/05 12:58:35;;;;;;;9.30;4.07;;;11.80;99.90;;;;;;6182574;23;20092;-85
2022/11/05 13:01:08;;;;;;;8.93;4.13;;;11.80;99.90;;;;;;6206093;23;20009;-84
2022/11/05 13:03:50;;;;;;;10.33;4.10;;;11.80;99.90;;;;;;6181207;23;20012;-85
2022/11/05 13:06:27;;;;;;;10.17;4.50;;;11.80;99.90;;;;;;6182425;23;20005;-84
2022/11/05 13:09:12;;;;;;;10.00;4.10;;;11.80;99.90;;;;;;6182185;23;20016;-85
2022/11/05 13:11:58;;;;;;;6.37;3.57;;;11.80;99.90;;;;;;6156133;23;20012;-84
2022/11/05 13:15:00;;;;;;;7.63;3.47;;;11.80;99.90;;;;;;6156388;23;20016;-85
2022/11/05 13:17:44;;;;;;;11.10;4.33;;;11.70;99.90;;;;;;6130747;23;20041;-85
2022/11/05 13:20:20;;;;;;;7.53;3.40;;;11.70;99.90;;;;;;6182559;23;20048;-84
2022/11/05 13:22:54;;;;;;;9.67;3.60;;;11.70;99.90;;;;;;6182887;23;20013;-84
2022/11/05 13:25:28;;;;;;;8.83;3.43;;;11.70;99.90;;;;;;6182291;23;20005;-85
2022/11/05 13:28:15;;;;;;;8.47;3.20;;;11.70;99.90;;;;;;6182146;23;20016;-85
2022/11/05 13:30:50;;;;;;;7.23;3.37;;;11.80;99.90;;;;;;6182071;23;20005;-85
2022/11/05 13:33:23;;;;;;;10.33;5.37;;;11.80;99.90;;;;;;6182916;23;20020;-85
2022/11/05 13:39:34;;;;;;;10.00;3.73;;;11.80;99.90;;;;;;6131909;23;20009;-85
2022/11/05 13:42:28;;;;;;;11.03;3.40;;;11.80;99.90;;;;;;6182293;23;20005;-84
2022/11/05 13:45:12;;;;;;;7.87;3.40;;;11.80;99.90;;;;;;6180865;23;20428;-85
2022/11/05 13:47:53;;;;;;;7.67;2.97;;;11.80;99.90;;;;;;6181954;23;20001;-84
2022/11/05 13:50:29;;;;;;;7.17;3.17;;;11.80;99.90;;;;;;6156042;23;20013;-85
2022/11/05 13:53:31;;;;;;;7.10;2.80;;;11.80;99.90;;;;;;6182650;23;20009;-84
2022/11/05 13:56:38;;;;;;;6.10;3.00;;;11.80;99.90;;;;;;6182780;23;20281;-85
2022/11/05 13:59:22;;;;;;;7.80;3.17;;;11.80;99.90;;;;;;6143472;23;20348;-85
2022/11/05 14:02:02;;;;;;;7.93;2.77;;;11.70;99.90;;;;;;6157561;23;20041;-85
2022/11/05 14:04:40;;;;;;;8.43;3.03;;;11.80;99.90;;;;;;6157865;23;20015;-85
2022/11/05 14:07:42;;;;;;;5.10;2.23;;;11.80;99.90;;;;;;6183756;23;20013;-85
2022/11/05 14:10:25;;;;;;;7.47;2.80;;;11.70;99.90;;;;;;6063520;23;20617;-84
2022/11/05 14:12:53;;;;;;;7.80;2.47;;;11.80;99.90;;;;;;6173096;23;20047;-84
2022/11/05 14:15:23;;;;;;;5.82;2.08;;;11.70;99.90;;;;;;6184891;23;20075;-85